• Join FlightAware (Why Join?)
  • Login
  • US Flag 
Rudolph Flight #1: Arrived! 
03:51AM EST


 

Airport Tracker/Info


-or-


 

Live Flight TrackerFlight Track Log ✈ UAL4843 ✈ 20-Apr-2013 ✈ KEWR - KBWI

Flight Track Log - Related Links

Times and Time Zones

All times are in EDT time to prevent confusion due to time zone crossing. See the UAL4843 flight status page for this flight to view local times or setup timezone preferences in your user account.

Time Position Orientation Groundspeed Altitude Reporting Facility
EDT Latitude Longitude Course Direction KTS MPH feet Rate Location/Type
12:43PM 40.5267 -74.4518 232° Southwest  Level Estimated
12:44PM 40.5029 -74.4922 232° Southwest  Level Estimated
12:45PM 40.4792 -74.5325 232° Southwest  Level Estimated
12:46PM 40.4554 -74.5727 232° Southwest  Level Estimated
12:47PM 40.4316 -74.6130 232° Southwest  Level Estimated
12:48PM 40.4078 -74.6532 232° Southwest  Level Estimated
12:49PM 40.3840 -74.6934 232° Southwest  Level Estimated
12:50PM 40.3602 -74.7336 232° Southwest  Level Estimated
12:51PM 40.3363 -74.7737 232° Southwest  Level Estimated
12:52PM 40.3125 -74.8138 232° Southwest  Level Estimated
12:53PM 40.2886 -74.8539 232° Southwest  Level Estimated
12:54PM 40.2647 -74.8940 232° Southwest  Level Estimated
12:55PM 40.2408 -74.9340 232° Southwest  Level Estimated
12:56PM 40.2169 -74.9740 232° Southwest  Level Estimated
12:57PM 40.1930 -75.0139 232° Southwest  Level Estimated
12:58PM 40.1690 -75.0539 232° Southwest  Level Estimated
12:59PM 40.1451 -75.0938 232° Southwest  Level Estimated
01:00PM 40.1211 -75.1337 232° Southwest  Level Estimated
01:01PM 40.0971 -75.1735 232° Southwest  Level Estimated
01:02PM 40.0731 -75.2133 232° Southwest  Level Estimated
01:03PM 40.0491 -75.2531 232° Southwest  Level Estimated
01:04PM 40.0251 -75.2929 232° Southwest  Level Estimated
01:05PM 40.0011 -75.3326 232° Southwest  Level Estimated
01:06PM 39.9770 -75.3724 232° Southwest  Level Estimated
01:07PM 39.9530 -75.4120 232° Southwest  Level Estimated
01:08PM 39.9289 -75.4517 232° Southwest  Level Estimated
01:09PM 39.9048 -75.4913 232° Southwest  Level Estimated
01:10PM 39.8807 -75.5309 232° Southwest  Level Estimated
01:11PM 39.8566 -75.5705 232° Southwest  Level Estimated
01:12PM 39.8325 -75.6101 232° Southwest  Level Estimated
01:13PM 39.8083 -75.6496 232° Southwest  Level Estimated
01:14PM 39.7841 -75.6891 231° Southwest  Level Estimated
01:15PM 39.7600 -75.7285 231° Southwest  Level Estimated
01:16PM 39.7358 -75.7680 231° Southwest  Level Estimated
01:17PM 39.7116 -75.8074 231° Southwest  Level Estimated
01:18PM 39.6874 -75.8468 231° Southwest  Level Estimated
01:19PM 39.6632 -75.8861 231° Southwest  Level Estimated
01:20PM 39.6389 -75.9254 231° Southwest  Level Estimated
01:21PM 39.6147 -75.9647 231° Southwest  Level Estimated
01:22PM 39.5904 -76.0040 231° Southwest  Level Estimated
01:23PM 39.5661 -76.0432 231° Southwest  Level Estimated
01:24PM 39.5419 -76.0825 231° Southwest  Level Estimated
01:25PM 39.5176 -76.1216 231° Southwest  Level Estimated
01:26PM 39.4932 -76.1608 231° Southwest  Level Estimated
01:27PM 39.4689 -76.1999 231° Southwest  Level Estimated
01:28PM 39.4446 -76.2390 231° Southwest  Level Estimated
01:29PM 39.4202 -76.2781 231° Southwest  Level Estimated
01:30PM 39.3958 -76.3172 231° Southwest  Level Estimated
01:31PM 39.3715 -76.3562 231° Southwest  Level Estimated
01:32PM 39.3471 -76.3952 231° Southwest  Level Estimated
01:33PM 39.3227 -76.4342 231° Southwest  Level Estimated
01:34PM 39.2982 -76.4731 231° Southwest  Level Estimated
01:35PM 39.2738 -76.5120 231° Southwest  Level Estimated
01:36PM 39.2494 -76.5509 231° Southwest  Level Estimated
01:37PM 39.2249 -76.5898 231° Southwest  Level Estimated
01:38PM 39.2004 -76.6286 231° Southwest  Level Estimated
01:39PM 39.1759 -76.6674 231° Southwest  Level Estimated
01:40PM 39.1754 -76.6683 231° Southwest  Level Estimated